createdAt,value
2019-03-26T00:00:46.267Z,41.33
2019-03-26T00:03:17.713Z,44.33
2019-03-26T00:05:49.021Z,54.33
2019-03-26T00:08:20.254Z,40.30
2019-03-26T00:10:51.593Z,46.33
2019-03-26T00:13:22.979Z,41.60
2019-03-26T00:15:54.198Z,41.50
2019-03-26T00:18:25.487Z,35.00
2019-03-26T00:20:56.690Z,42.27
2019-03-26T00:23:27.994Z,32.57
2019-03-26T00:25:59.514Z,34.90
2019-03-26T00:28:31.199Z,33.70
2019-03-26T00:31:02.748Z,30.60
2019-03-26T00:33:36.536Z,39.00
2019-03-26T00:36:07.227Z,35.33
2019-03-26T00:38:38.567Z,25.40
2019-03-26T00:41:09.903Z,34.63
2019-03-26T00:43:41.133Z,38.53
2019-03-26T00:46:12.417Z,36.37
2019-03-26T00:48:45.229Z,37.57
2019-03-26T00:51:16.539Z,24.20
2019-03-26T00:53:47.837Z,24.67
2019-03-26T00:56:19.437Z,25.97
2019-03-26T00:58:51.059Z,29.07
2019-03-26T01:01:22.513Z,30.40
2019-03-26T01:03:57.987Z,26.27
2019-03-26T01:06:29.389Z,33.07
2019-03-26T01:09:00.809Z,30.50
2019-03-26T01:11:32.116Z,39.30
2019-03-26T01:14:03.436Z,25.83
2019-03-26T01:16:34.997Z,32.33
2019-03-26T01:19:06.372Z,41.80
2019-03-26T01:21:37.757Z,33.93
2019-03-26T01:24:09.413Z,31.57
2019-03-26T01:26:40.784Z,27.57
2019-03-26T01:29:12.119Z,33.23
2019-03-26T01:31:43.634Z,34.23
2019-03-26T01:34:14.905Z,31.23
2019-03-26T01:36:46.204Z,30.07
2019-03-26T01:39:18.771Z,33.67
2019-03-26T01:41:50.324Z,33.63
2019-03-26T01:44:21.633Z,27.67
2019-03-26T01:46:55.679Z,27.00
2019-03-26T01:49:26.940Z,29.43
2019-03-26T01:51:58.325Z,36.20
2019-03-26T01:54:29.560Z,30.47
2019-03-26T01:57:00.989Z,37.20
2019-03-26T01:59:32.316Z,24.80
2019-03-26T02:02:03.658Z,36.80
2019-03-26T02:04:34.970Z,17.93
2019-03-26T02:07:06.446Z,16.90
2019-03-26T02:09:37.740Z,24.00
2019-03-26T02:12:09.234Z,15.50
2019-03-26T02:14:40.584Z,19.63
2019-03-26T02:17:13.846Z,25.53
2019-03-26T02:19:45.261Z,20.73
2019-03-26T02:22:16.837Z,22.37
2019-03-26T02:24:48.178Z,14.40
2019-03-26T02:27:19.405Z,17.07
2019-03-26T02:29:50.763Z,24.07
2019-03-26T02:32:22.384Z,16.83
2019-03-26T02:34:54.023Z,18.90
2019-03-26T02:37:25.269Z,21.73
2019-03-26T02:39:56.751Z,25.07
2019-03-26T02:42:28.070Z,9.40
2019-03-26T02:44:59.431Z,14.70
2019-03-26T02:47:30.842Z,13.50
2019-03-26T02:50:04.446Z,9.87
2019-03-26T02:52:35.714Z,16.57
2019-03-26T02:55:07.371Z,16.03
2019-03-26T02:57:38.846Z,18.77
2019-03-26T03:00:10.958Z,10.40
2019-03-26T03:02:42.349Z,16.13
2019-03-26T03:05:13.907Z,16.87
2019-03-26T03:07:45.157Z,12.03
2019-03-26T03:10:16.868Z,16.43
2019-03-26T03:12:48.333Z,17.07
2019-03-26T03:15:19.707Z,20.33
2019-03-26T03:17:51.094Z,24.07
2019-03-26T03:20:22.779Z,14.10
2019-03-26T03:22:54.476Z,17.60
2019-03-26T03:25:25.957Z,14.60
2019-03-26T03:27:57.350Z,12.80
2019-03-26T03:30:28.615Z,14.77
2019-03-26T03:33:00.012Z,18.53
2019-03-26T03:35:31.513Z,18.33
2019-03-26T03:38:02.839Z,9.10
2019-03-26T03:40:34.285Z,18.13
2019-03-26T03:43:06.646Z,13.20
2019-03-26T03:45:38.705Z,19.93
2019-03-26T03:48:10.553Z,22.17
2019-03-26T03:50:44.659Z,18.97
2019-03-26T03:53:18.100Z,9.07
2019-03-26T03:55:50.543Z,15.50
2019-03-26T03:58:24.130Z,15.13
2019-03-26T04:00:55.496Z,17.33
2019-03-26T04:03:29.904Z,20.23
2019-03-26T04:06:09.125Z,15.07
2019-03-26T04:08:34.329Z,18.00
2019-03-26T04:11:05.753Z,15.27
2019-03-26T04:13:37.039Z,17.97
2019-03-26T04:16:08.575Z,13.70
2019-03-26T04:18:39.843Z,17.10
2019-03-26T04:21:11.086Z,19.50
2019-03-26T04:23:42.256Z,21.73
2019-03-26T04:26:13.578Z,15.43
2019-03-26T04:28:44.900Z,13.70
2019-03-26T04:31:16.311Z,13.23
2019-03-26T04:33:47.680Z,22.10
2019-03-26T04:36:25.983Z,20.50
2019-03-26T04:38:52.346Z,12.57
2019-03-26T04:41:23.722Z,17.77
2019-03-26T04:43:55.020Z,21.83
2019-03-26T04:46:26.544Z,17.90
2019-03-26T04:48:57.923Z,23.03
2019-03-26T04:51:30.850Z,14.40
2019-03-26T04:54:02.163Z,12.13
2019-03-26T04:56:33.579Z,22.63
2019-03-26T04:59:04.944Z,18.57
2019-03-26T05:01:36.399Z,21.63
2019-03-26T05:04:07.766Z,20.63
2019-03-26T05:06:39.213Z,15.07
2019-03-26T05:09:10.484Z,20.10
2019-03-26T05:11:41.920Z,19.83
2019-03-26T05:14:13.358Z,17.67
2019-03-26T05:16:44.728Z,17.07
2019-03-26T05:19:15.916Z,21.03
2019-03-26T05:21:47.349Z,15.13
2019-03-26T05:24:18.489Z,14.37
2019-03-26T05:26:49.898Z,18.47
2019-03-26T05:29:21.401Z,15.17
2019-03-26T05:31:52.644Z,21.40
2019-03-26T05:34:24.241Z,23.10
2019-03-26T05:36:55.695Z,9.23
2019-03-26T05:39:27.090Z,22.13
2019-03-26T05:42:00.752Z,23.20
2019-03-26T05:44:32.209Z,28.63
2019-03-26T05:47:03.825Z,15.83
2019-03-26T05:49:35.169Z,20.43
2019-03-26T05:52:08.260Z,18.30
2019-03-26T05:54:40.189Z,18.30
2019-03-26T05:57:11.547Z,16.27
2019-03-26T05:59:43.231Z,16.17
2019-03-26T06:02:17.935Z,11.90
2019-03-26T06:04:47.930Z,20.30
2019-03-26T06:07:19.408Z,19.80
2019-03-26T06:09:50.850Z,18.93
2019-03-26T06:12:24.748Z,20.20
2019-03-26T06:14:56.452Z,17.50
2019-03-26T06:17:27.942Z,15.57
2019-03-26T06:19:59.476Z,12.40
2019-03-26T06:22:30.776Z,16.73
2019-03-26T06:25:02.035Z,16.67
2019-03-26T06:27:33.475Z,10.37
2019-03-26T06:30:05.338Z,15.20
2019-03-26T06:32:36.560Z,21.13
2019-03-26T06:35:10.962Z,14.20
2019-03-26T06:37:42.162Z,13.50
2019-03-26T06:40:14.158Z,11.10
2019-03-26T06:42:45.510Z,25.40
2019-03-26T06:45:17.011Z,15.97
2019-03-26T06:47:48.379Z,20.87
2019-03-26T06:50:19.916Z,8.87
2019-03-26T06:52:51.269Z,21.20
2019-03-26T06:55:23.513Z,17.17
2019-03-26T06:57:54.743Z,16.67
2019-03-26T07:00:31.133Z,18.57
2019-03-26T07:03:04.049Z,13.20
2019-03-26T07:05:35.236Z,16.60
2019-03-26T07:08:06.575Z,19.37
2019-03-26T07:10:40.160Z,15.10
2019-03-26T07:13:10.588Z,13.60
2019-03-26T07:15:42.007Z,12.00
2019-03-26T07:18:13.220Z,14.40
2019-03-26T07:20:44.441Z,8.20
2019-03-26T07:23:15.701Z,20.70
2019-03-26T07:25:46.992Z,12.10
2019-03-26T07:28:18.640Z,11.43
2019-03-26T07:30:49.954Z,8.67
2019-03-26T07:33:21.631Z,9.10
2019-03-26T07:35:52.993Z,10.20
2019-03-26T07:38:24.445Z,18.33
2019-03-26T07:40:55.696Z,8.70
2019-03-26T07:43:26.942Z,16.57
2019-03-26T07:45:58.442Z,7.27
2019-03-26T07:48:30.594Z,10.80
2019-03-26T07:51:01.835Z,18.00
2019-03-26T07:53:33.054Z,15.70
2019-03-26T07:56:04.264Z,11.03
2019-03-26T07:58:35.374Z,13.57
2019-03-26T08:01:06.815Z,11.93
2019-03-26T08:03:38.084Z,11.00
2019-03-26T08:06:09.503Z,14.30
2019-03-26T08:08:40.961Z,15.00
2019-03-26T08:11:12.316Z,9.87
2019-03-26T08:13:43.566Z,18.83
2019-03-26T08:16:15.056Z,14.07
2019-03-26T08:18:46.313Z,18.17
2019-03-26T08:21:17.467Z,11.97
2019-03-26T08:23:49.075Z,16.83
2019-03-26T08:26:20.401Z,13.00
2019-03-26T08:28:51.583Z,15.30
2019-03-26T08:31:22.881Z,18.13
2019-03-26T08:33:55.231Z,7.37
2019-03-26T08:36:27.508Z,12.37
2019-03-26T08:38:59.092Z,10.90
2019-03-26T08:41:30.542Z,14.37
2019-03-26T08:44:01.785Z,11.77
2019-03-26T08:46:33.129Z,13.23
2019-03-26T08:49:07.198Z,16.60
2019-03-26T08:51:38.516Z,12.70
2019-03-26T08:54:09.790Z,14.20
2019-03-26T08:56:41.227Z,13.53
2019-03-26T08:59:12.574Z,11.10
2019-03-26T09:01:43.854Z,12.27
2019-03-26T09:04:15.057Z,15.20
2019-03-26T09:06:46.641Z,10.10
2019-03-26T09:09:19.044Z,12.47
2019-03-26T09:11:50.393Z,11.30
2019-03-26T09:14:21.740Z,16.77
2019-03-26T09:16:53.148Z,25.43
2019-03-26T09:19:24.298Z,10.50
2019-03-26T09:21:55.499Z,17.70
2019-03-26T09:24:26.724Z,16.77
2019-03-26T09:26:57.941Z,9.43
2019-03-26T09:29:29.149Z,9.30
2019-03-26T09:32:00.476Z,11.07
2019-03-26T09:34:31.672Z,12.17
2019-03-26T09:37:02.952Z,9.93
2019-03-26T09:39:34.277Z,8.77
2019-03-26T09:42:06.365Z,10.60
2019-03-26T09:44:37.761Z,9.50
2019-03-26T09:47:16.015Z,9.17
2019-03-26T09:49:42.562Z,12.17
2019-03-26T09:52:14.186Z,12.13
2019-03-26T09:54:53.282Z,10.50
2019-03-26T09:57:24.695Z,7.07
2019-03-26T09:59:56.315Z,11.57
2019-03-26T10:02:28.172Z,17.90
2019-03-26T10:04:59.632Z,10.27
2019-03-26T10:07:36.643Z,16.70
2019-03-26T10:10:09.385Z,12.90
2019-03-26T10:12:40.869Z,12.30
2019-03-26T10:15:12.823Z,9.60
2019-03-26T10:17:44.161Z,11.07
2019-03-26T10:20:17.505Z,10.57
2019-03-26T10:22:49.200Z,11.90
2019-03-26T10:25:20.852Z,11.77
2019-03-26T10:27:52.298Z,11.30
2019-03-26T10:30:37.662Z,11.00
2019-03-26T10:33:09.433Z,19.53
2019-03-26T10:35:42.417Z,10.43
2019-03-26T10:38:22.345Z,14.33
2019-03-26T10:41:07.704Z,13.63
2019-03-26T10:43:47.039Z,12.77
2019-03-26T10:46:18.350Z,17.53
2019-03-26T10:49:48.797Z,15.50
2019-03-26T10:52:21.065Z,15.67
2019-03-26T10:54:52.504Z,11.03
2019-03-26T10:57:27.030Z,6.70
2019-03-26T10:59:58.486Z,11.70
2019-03-26T11:02:30.313Z,13.50
2019-03-26T11:05:01.956Z,12.07
2019-03-26T11:07:38.230Z,7.10
2019-03-26T11:13:45.354Z,7.37
2019-03-26T11:16:17.085Z,9.13
2019-03-26T11:18:51.908Z,13.73
2019-03-26T11:21:23.511Z,11.67
2019-03-26T11:23:55.457Z,10.03
2019-03-26T11:26:28.229Z,11.97
2019-03-26T11:29:02.589Z,7.83
2019-03-26T11:31:36.719Z,12.80
2019-03-26T11:34:08.071Z,6.73
2019-03-26T11:36:39.638Z,13.60
2019-03-26T11:39:13.226Z,8.03
2019-03-26T11:41:44.653Z,10.57
2019-03-26T11:44:16.150Z,9.60
2019-03-26T11:46:48.133Z,7.73
2019-03-26T11:49:19.588Z,6.70
2019-03-26T11:51:51.383Z,10.77
2019-03-26T11:54:23.012Z,13.00
2019-03-26T11:56:54.814Z,7.93
2019-03-26T11:59:28.926Z,14.70
2019-03-26T12:02:00.613Z,6.30
2019-03-26T12:04:32.524Z,7.13
2019-03-26T12:07:04.026Z,8.20
2019-03-26T12:09:46.241Z,12.00
2019-03-26T12:12:10.748Z,15.13
2019-03-26T12:14:44.965Z,11.37
2019-03-26T12:17:16.648Z,7.53
2019-03-26T12:19:47.915Z,14.27
2019-03-26T12:22:22.189Z,8.60
2019-03-26T12:24:53.577Z,5.63
2019-03-26T12:27:25.140Z,8.07
2019-03-26T12:29:56.612Z,10.80
2019-03-26T12:32:28.095Z,9.30
2019-03-26T12:35:02.864Z,8.53
2019-03-26T12:37:34.327Z,9.30
2019-03-26T12:40:06.799Z,11.80
2019-03-26T12:42:38.287Z,9.93
2019-03-26T12:45:10.492Z,9.80
2019-03-26T12:47:41.873Z,3.90
2019-03-26T12:50:13.639Z,9.87
2019-03-26T12:52:44.994Z,4.07
2019-03-26T12:55:16.444Z,7.30
2019-03-26T12:57:47.870Z,7.33
2019-03-26T13:00:22.620Z,8.73
2019-03-26T13:02:56.517Z,7.47
2019-03-26T13:05:30.149Z,8.80
2019-03-26T13:08:03.184Z,7.47
2019-03-26T13:10:34.703Z,7.30
2019-03-26T13:13:06.130Z,5.50
2019-03-26T13:15:37.388Z,11.97
2019-03-26T13:18:11.223Z,10.37
2019-03-26T13:20:42.121Z,3.60
2019-03-26T13:23:13.511Z,6.77
2019-03-26T13:25:44.832Z,11.20
2019-03-26T13:28:16.240Z,5.73
2019-03-26T13:30:47.602Z,17.50
2019-03-26T13:33:19.431Z,8.73
2019-03-26T13:35:50.695Z,8.90
2019-03-26T13:38:22.171Z,19.20
2019-03-26T13:40:53.957Z,13.57
2019-03-26T13:43:27.041Z,11.77
2019-03-26T13:45:58.365Z,8.10
2019-03-26T13:48:29.939Z,9.23
2019-03-26T13:51:01.330Z,7.93
2019-03-26T13:53:32.858Z,7.90
2019-03-26T13:56:04.122Z,11.13
2019-03-26T13:58:35.578Z,11.83
2019-03-26T14:01:07.073Z,6.13
2019-03-26T14:03:38.584Z,12.10
2019-03-26T14:06:10.081Z,27.23
2019-03-26T14:08:44.512Z,11.10
2019-03-26T14:11:17.237Z,11.00
2019-03-26T14:13:48.496Z,8.93
2019-03-26T14:16:19.993Z,6.93
2019-03-26T14:18:51.461Z,12.13
2019-03-26T14:21:23.459Z,5.53
2019-03-26T14:23:54.876Z,8.50
2019-03-26T14:26:28.870Z,4.73
2019-03-26T14:29:00.309Z,5.73
2019-03-26T14:31:33.173Z,10.00
2019-03-26T14:34:05.906Z,10.60
2019-03-26T14:36:37.225Z,12.63
2019-03-26T14:39:10.530Z,8.13
2019-03-26T14:41:42.000Z,8.83
2019-03-26T14:44:13.551Z,7.53
2019-03-26T14:46:47.220Z,15.80
2019-03-26T14:49:22.564Z,7.50
2019-03-26T14:51:54.129Z,5.80
2019-03-26T14:54:28.681Z,7.90
2019-03-26T14:57:00.017Z,5.97
2019-03-26T14:59:31.655Z,6.53
2019-03-26T15:02:07.465Z,8.77
2019-03-26T15:04:47.853Z,11.20
2019-03-26T15:07:19.422Z,11.83
2019-03-26T15:09:51.162Z,10.53
2019-03-26T15:12:22.718Z,8.10
2019-03-26T15:14:57.094Z,6.60
2019-03-26T15:17:29.131Z,14.60
2019-03-26T15:20:15.546Z,11.50
2019-03-26T15:22:58.176Z,9.30
2019-03-26T15:25:40.080Z,6.00
2019-03-26T15:28:16.972Z,10.50
2019-03-26T15:31:33.615Z,4.80
2019-03-26T15:34:05.255Z,8.33
2019-03-26T15:37:06.345Z,5.90
2019-03-26T15:39:39.214Z,6.20
2019-03-26T15:42:18.229Z,5.23
2019-03-26T15:44:54.229Z,3.00
2019-03-26T15:47:28.941Z,11.00
2019-03-26T15:50:00.414Z,9.90
2019-03-26T15:53:05.592Z,5.40
2019-03-26T15:56:47.794Z,6.43
2019-03-26T15:59:26.772Z,3.90
2019-03-26T16:01:59.442Z,4.30
2019-03-26T16:04:36.395Z,6.37
2019-03-26T16:07:07.938Z,6.33
2019-03-26T16:09:46.608Z,5.30
2019-03-26T16:12:40.912Z,3.70
2019-03-26T16:15:04.445Z,5.00
2019-03-26T16:17:36.207Z,4.13
2019-03-26T16:20:08.178Z,5.57
2019-03-26T16:22:39.452Z,4.03
2019-03-26T16:25:10.984Z,6.10
2019-03-26T16:27:42.218Z,3.00
2019-03-26T16:30:17.451Z,5.30
2019-03-26T16:32:49.188Z,5.33
2019-03-26T16:35:21.019Z,2.93
2019-03-26T16:37:55.320Z,6.30
2019-03-26T16:40:26.958Z,3.07
2019-03-26T16:43:01.575Z,4.10
2019-03-26T16:45:33.442Z,4.20
2019-03-26T16:48:04.938Z,9.23
2019-03-26T16:50:44.095Z,7.63
2019-03-26T16:53:18.861Z,5.67
2019-03-26T16:55:50.386Z,4.13
2019-03-26T16:58:21.865Z,3.90
2019-03-26T17:00:53.426Z,4.40
2019-03-26T17:03:31.374Z,7.30
2019-03-26T17:05:58.946Z,7.53
2019-03-26T17:08:30.810Z,6.17
2019-03-26T17:11:02.638Z,6.00
2019-03-26T17:13:33.806Z,16.90
2019-03-26T17:16:05.856Z,9.17
2019-03-26T17:18:37.576Z,5.20
2019-03-26T17:21:11.832Z,3.73
2019-03-26T17:23:43.115Z,5.23
2019-03-26T17:26:15.552Z,5.77
2019-03-26T17:28:46.976Z,8.83
2019-03-26T17:31:18.350Z,6.10
2019-03-26T17:33:49.807Z,8.80
2019-03-26T17:36:21.134Z,3.83
2019-03-26T17:38:52.568Z,10.50
2019-03-26T17:41:24.264Z,6.97
2019-03-26T17:43:55.715Z,16.50
2019-03-26T17:46:27.568Z,10.17
2019-03-26T17:48:59.117Z,6.30
2019-03-26T17:51:31.472Z,6.20
2019-03-26T17:54:03.158Z,9.90
2019-03-26T17:56:34.967Z,9.90
2019-03-26T17:59:09.180Z,7.40
2019-03-26T18:01:44.111Z,4.93
2019-03-26T18:04:19.161Z,7.53
2019-03-26T18:06:50.595Z,5.90
2019-03-26T18:09:22.237Z,9.17
2019-03-26T18:11:53.910Z,8.53
2019-03-26T18:14:25.554Z,11.80
2019-03-26T18:16:56.976Z,7.97
2019-03-26T18:19:30.898Z,7.50
2019-03-26T18:22:03.016Z,10.63
2019-03-26T18:24:34.499Z,8.03
2019-03-26T18:27:06.257Z,7.83
2019-03-26T18:29:39.498Z,16.90
2019-03-26T18:32:11.015Z,10.93
2019-03-26T18:34:42.607Z,9.20
2019-03-26T18:37:19.357Z,12.50
2019-03-26T18:39:51.031Z,14.93
2019-03-26T18:42:22.489Z,12.00
2019-03-26T18:44:53.947Z,11.63
2019-03-26T18:47:25.386Z,11.63
2019-03-26T18:50:02.793Z,9.50
2019-03-26T18:52:34.519Z,6.33
2019-03-26T18:55:17.282Z,10.33
2019-03-26T18:57:51.775Z,18.33
2019-03-26T19:00:39.880Z,12.73
2019-03-26T19:03:11.278Z,15.17
2019-03-26T19:05:42.618Z,10.40
2019-03-26T19:08:14.381Z,20.53
2019-03-26T19:10:45.650Z,10.33
2019-03-26T19:13:19.896Z,13.70
2019-03-26T19:15:50.733Z,10.90
2019-03-26T19:18:22.288Z,15.57
2019-03-26T19:21:01.941Z,11.87
2019-03-26T19:23:26.981Z,14.13
2019-03-26T19:26:01.586Z,10.33
2019-03-26T19:28:32.959Z,11.90
2019-03-26T19:31:05.975Z,14.27
2019-03-26T19:33:38.810Z,21.93
2019-03-26T19:36:10.403Z,8.43
2019-03-26T19:38:44.055Z,11.83
2019-03-26T19:41:30.080Z,15.33
2019-03-26T19:44:01.673Z,17.30
2019-03-26T19:46:32.964Z,19.53
2019-03-26T19:49:05.557Z,17.30
2019-03-26T19:51:37.470Z,11.50
2019-03-26T19:54:08.992Z,21.27
2019-03-26T19:56:43.216Z,12.23
2019-03-26T19:59:17.646Z,14.47
2019-03-26T20:01:49.408Z,19.07
2019-03-26T20:04:22.590Z,10.67
2019-03-26T20:06:54.185Z,13.93
2019-03-26T20:09:25.917Z,16.57
2019-03-26T20:11:57.505Z,15.63
2019-03-26T20:14:29.271Z,12.60
2019-03-26T20:17:01.225Z,14.97
2019-03-26T20:19:36.342Z,11.77
2019-03-26T20:22:12.128Z,11.97
2019-03-26T20:24:43.699Z,10.77
2019-03-26T20:27:15.410Z,16.83
2019-03-26T20:29:49.958Z,14.53
2019-03-26T20:32:26.109Z,13.90
2019-03-26T20:34:57.826Z,19.33
2019-03-26T20:37:29.270Z,24.03
2019-03-26T20:40:00.712Z,18.87
2019-03-26T20:42:32.428Z,18.37
2019-03-26T20:45:04.479Z,16.33
2019-03-26T20:47:51.524Z,20.57
2019-03-26T20:50:23.141Z,21.80
2019-03-26T20:52:55.721Z,17.03
2019-03-26T20:55:36.578Z,23.30
2019-03-26T20:58:11.004Z,16.47
2019-03-26T21:00:43.473Z,16.93
2019-03-26T21:03:16.579Z,17.50
2019-03-26T21:05:48.004Z,23.10
2019-03-26T21:08:19.586Z,22.67
2019-03-26T21:10:54.899Z,15.53
2019-03-26T21:13:26.394Z,29.17
2019-03-26T21:15:58.032Z,23.70
2019-03-26T21:18:29.633Z,26.70
2019-03-26T21:21:01.062Z,26.57
2019-03-26T21:23:32.434Z,21.53
2019-03-26T21:26:03.766Z,20.63
2019-03-26T21:28:35.420Z,18.70
2019-03-26T21:31:10.864Z,17.80
2019-03-26T21:33:42.312Z,23.33
2019-03-26T21:36:14.793Z,30.07
2019-03-26T21:39:00.214Z,25.63
2019-03-26T21:41:32.138Z,20.43
2019-03-26T21:44:04.879Z,24.17
2019-03-26T21:46:38.437Z,27.13
2019-03-26T21:49:10.258Z,30.10
2019-03-26T21:51:44.451Z,16.17
2019-03-26T21:54:15.793Z,19.97
2019-03-26T21:56:50.150Z,20.50
2019-03-26T21:59:21.479Z,21.03
2019-03-26T22:01:52.810Z,19.87
2019-03-26T22:04:23.988Z,22.33
2019-03-26T22:06:55.267Z,22.03
2019-03-26T22:09:28.501Z,19.20
2019-03-26T22:12:00.492Z,20.67
2019-03-26T22:14:33.473Z,13.93
2019-03-26T22:17:06.459Z,28.93
2019-03-26T22:19:38.219Z,19.77
2019-03-26T22:22:09.516Z,23.03
2019-03-26T22:24:42.305Z,27.77
2019-03-26T22:27:13.439Z,24.27
2019-03-26T22:29:44.942Z,21.43
2019-03-26T22:32:18.412Z,29.43
2019-03-26T22:34:49.873Z,16.63
2019-03-26T22:37:21.112Z,17.77
2019-03-26T22:39:52.328Z,16.87
2019-03-26T22:42:23.716Z,23.10
2019-03-26T22:44:57.071Z,29.03
2019-03-26T22:47:28.505Z,24.97
2019-03-26T22:49:59.733Z,22.70
2019-03-26T22:52:31.164Z,21.33
2019-03-26T22:55:02.466Z,21.63
2019-03-26T22:57:33.638Z,17.33
2019-03-26T23:00:08.326Z,25.20
2019-03-26T23:02:40.039Z,15.87
2019-03-26T23:05:13.000Z,19.10
2019-03-26T23:07:44.326Z,27.13
2019-03-26T23:10:18.806Z,23.63
2019-03-26T23:12:50.126Z,25.00
2019-03-26T23:15:23.474Z,28.30
2019-03-26T23:17:54.888Z,22.07
2019-03-26T23:20:26.301Z,32.30
2019-03-26T23:22:59.935Z,18.83
2019-03-26T23:25:31.305Z,18.57
2019-03-26T23:28:02.827Z,22.77
2019-03-26T23:30:34.143Z,22.73
2019-03-26T23:33:05.376Z,32.17
2019-03-26T23:35:36.856Z,21.30
2019-03-26T23:38:10.411Z,21.63
2019-03-26T23:40:41.741Z,29.23
2019-03-26T23:43:12.989Z,20.23
2019-03-26T23:45:44.319Z,29.77
2019-03-26T23:48:15.600Z,17.20
2019-03-26T23:50:46.804Z,23.73
2019-03-26T23:53:17.977Z,17.50
2019-03-26T23:55:49.338Z,20.73
2019-03-26T23:58:20.517Z,21.67
